Time;durP1;ratioP1;P1;durP2;ratioP2;P2;SDS_P1;SDS_P2;PMS_P1;PMS_P2;Temp;Humidity;BMP_temperature;BMP_pressure;BME280_temperature;BME280_humidity;BME280_pressure;Samples;Min_cycle;Max_cycle;Signal;HPM_P1;HPM_P2
2021/07/28 00:02:21;;;;;;;;;;;;;;;20.91;66.21;100662.31;5017384;28;1910;-68
2021/07/28 00:04:46;;;;;;;;;;;;;;;20.92;66.54;100661.31;5017341;28;931;-67
2021/07/28 00:07:12;;;;;;;;;;;;;;;20.90;66.60;100652.50;5016897;28;907;-67
2021/07/28 00:09:37;;;;;;;;;;;;;;;20.88;66.95;100652.66;5016909;28;1246;-67
2021/07/28 00:12:02;;;;;;;;;;;;;;;20.89;66.70;100645.38;5016963;28;775;-67
2021/07/28 00:14:27;;;;;;;;;;;;;;;20.89;66.23;100653.50;5017055;28;1045;-68
2021/07/28 00:16:52;;;;;;;;;;;;;;;20.87;65.97;100640.13;5016617;28;1719;-67
2021/07/28 00:19:24;;;;;;;;;;;;;;;20.86;66.63;100641.16;5015451;28;977;-68
2021/07/28 00:24:32;;;;;;;;;;;;;;;20.85;66.52;100636.75;5016721;28;2925;-68
2021/07/28 00:26:59;;;;;;;;;;;;;;;20.84;66.36;100632.34;5016802;28;1756;-67
2021/07/28 00:29:24;;;;;;;;;;;;;;;20.84;66.23;100632.34;5016847;28;768;-67
2021/07/28 00:31:49;;;;;;;;;;;;;;;20.84;66.34;100631.50;5016766;28;953;-67
2021/07/28 00:34:14;;;;;;;;;;;;;;;20.83;66.05;100630.66;5016519;28;1701;-67
2021/07/28 00:36:39;;;;;;;;;;;;;;;20.83;66.41;100625.22;5016488;28;858;-67
2021/07/28 00:39:04;;;;;;;;;;;;;;;20.82;66.24;100634.38;5016342;28;800;-67
2021/07/28 00:41:29;;;;;;;;;;;;;;;20.80;66.55;100628.28;5016598;28;1890;-67
2021/07/28 00:43:54;;;;;;;;;;;;;;;20.81;66.55;100635.38;5014994;28;1347;-67
2021/07/28 00:46:19;;;;;;;;;;;;;;;20.78;66.32;100630.34;5015409;28;1759;-68
2021/07/28 00:48:45;;;;;;;;;;;;;;;20.78;65.95;100622.22;5015609;28;1458;-67
2021/07/28 00:51:11;;;;;;;;;;;;;;;20.78;65.77;100630.34;5015699;28;1435;-67
2021/07/28 00:53:36;;;;;;;;;;;;;;;20.77;66.37;100626.78;5015842;28;1442;-67
2021/07/28 00:56:01;;;;;;;;;;;;;;;20.77;66.26;100625.94;5015486;28;1317;-67
2021/07/28 00:58:26;;;;;;;;;;;;;;;20.76;66.13;100616.13;5014111;28;1349;-67
2021/07/28 01:00:51;;;;;;;;;;;;;;;20.77;66.06;100620.53;5015382;28;1922;-67
2021/07/28 01:03:16;;;;;;;;;;;;;;;20.77;66.86;100621.38;5015377;28;1439;-67
2021/07/28 01:05:41;;;;;;;;;;;;;;;20.77;66.84;100626.78;5014343;28;1353;-67
2021/07/28 01:08:06;;;;;;;;;;;;;;;20.77;66.46;100609.69;5013870;28;1384;-67
2021/07/28 01:10:31;;;;;;;;;;;;;;;20.75;66.45;100617.97;5014756;28;1405;-67
2021/07/28 01:12:56;;;;;;;;;;;;;;;20.74;66.32;100618.16;5014897;28;1443;-67
2021/07/28 01:15:32;;;;;;;;;;;;;;;20.71;66.50;100613.91;5014441;28;1403;-67
2021/07/28 01:17:57;;;;;;;;;;;;;;;20.71;66.10;100613.91;5030808;28;1591;-67
2021/07/28 01:20:22;;;;;;;;;;;;;;;20.72;66.65;100612.06;5015651;28;795;-64
2021/07/28 01:22:47;;;;;;;;;;;;;;;20.72;65.74;100606.63;5015494;28;1926;-64
2021/07/28 01:25:12;;;;;;;;;;;;;;;20.72;66.27;100612.06;5015808;28;1013;-65
2021/07/28 01:27:37;;;;;;;;;;;;;;;20.69;66.39;100602.41;5014872;28;2444;-64
2021/07/28 01:30:02;;;;;;;;;;;;;;;20.72;65.88;100601.22;5014883;28;1351;-64
2021/07/28 01:32:27;;;;;;;;;;;;;;;20.70;66.09;100605.97;5014896;28;1348;-64
2021/07/28 01:34:53;;;;;;;;;;;;;;;20.67;65.88;100599.03;5030273;28;1303;-64
2021/07/28 01:37:18;;;;;;;;;;;;;;;20.68;66.30;100598.00;5014822;28;1340;-65
2021/07/28 01:39:44;;;;;;;;;;;;;;;20.67;66.33;100595.47;5014314;28;1444;-65
2021/07/28 01:42:10;;;;;;;;;;;;;;;20.65;66.53;100594.78;5014782;28;1898;-64
2021/07/28 01:44:36;;;;;;;;;;;;;;;20.66;66.58;100586.50;5014900;28;1344;-64
2021/07/28 01:47:01;;;;;;;;;;;;;;;20.65;65.80;100589.38;5015097;28;1419;-64
2021/07/28 01:49:26;;;;;;;;;;;;;;;20.65;65.50;100587.50;5014731;28;1336;-64
2021/07/28 01:51:51;;;;;;;;;;;;;;;20.64;65.84;100580.41;5014205;28;1422;-64
2021/07/28 01:54:16;;;;;;;;;;;;;;;20.62;66.15;100578.88;5029758;28;1315;-65
2021/07/28 01:56:44;;;;;;;;;;;;;;;20.62;65.98;100584.28;5014676;28;1426;-64
2021/07/28 01:59:09;;;;;;;;;;;;;;;20.61;66.04;100580.75;5011877;28;1621;-65
2021/07/28 02:01:34;;;;;;;;;;;;;;;20.60;65.62;100576.34;5014888;28;1973;-65
2021/07/28 02:04:00;;;;;;;;;;;;;;;20.60;65.63;100591.78;5014716;28;1371;-65
2021/07/28 02:06:25;;;;;;;;;;;;;;;20.59;65.70;100580.09;5014651;28;1405;-65
2021/07/28 02:08:50;;;;;;;;;;;;;;;20.57;66.08;100576.72;5014322;28;1358;-65
2021/07/28 02:11:15;;;;;;;;;;;;;;;20.56;65.75;100580.44;5014561;28;1355;-67
2021/07/28 02:13:40;;;;;;;;;;;;;;;20.56;65.38;100580.44;5029832;28;1272;-67
2021/07/28 02:16:06;;;;;;;;;;;;;;;20.57;65.90;100579.41;5014288;28;1422;-67
2021/07/28 02:18:31;;;;;;;;;;;;;;;20.55;65.48;100577.88;5014414;28;1355;-67
2021/07/28 02:20:56;;;;;;;;;;;;;;;20.52;65.73;100586.34;5013713;28;1963;-66
2021/07/28 02:23:22;;;;;;;;;;;;;;;20.51;66.69;100577.38;5014434;28;1359;-67
2021/07/28 02:25:47;;;;;;;;;;;;;;;20.50;66.00;100585.66;5014511;28;1260;-66
2021/07/28 02:28:12;;;;;;;;;;;;;;;20.51;65.73;100584.66;5015175;28;911;-66
2021/07/28 02:30:37;;;;;;;;;;;;;;;20.50;66.13;100577.53;5014871;28;847;-66
2021/07/28 02:33:02;;;;;;;;;;;;;;;20.47;65.67;100573.31;5014631;28;2379;-67
2021/07/28 02:35:27;;;;;;;;;;;;;;;20.50;66.40;100574.84;5014114;28;1749;-66
2021/07/28 02:37:52;;;;;;;;;;;;;;;20.47;66.48;100576.03;5014325;28;1352;-67
2021/07/28 02:40:17;;;;;;;;;;;;;;;20.48;66.70;100571.44;5014137;28;1303;-66
2021/07/28 02:42:43;;;;;;;;;;;;;;;20.47;65.78;100572.47;5014235;28;1939;-67
2021/07/28 02:45:08;;;;;;;;;;;;;;;20.45;66.00;100569.94;5014059;28;1324;-66
2021/07/28 02:47:33;;;;;;;;;;;;;;;20.42;65.92;100562.19;5014266;28;1335;-67
2021/07/28 02:49:58;;;;;;;;;;;;;;;20.45;66.80;100564.50;5014351;28;1339;-66
2021/07/28 02:52:23;;;;;;;;;;;;;;;20.48;66.49;100563.34;5014549;28;1755;-66
2021/07/28 02:54:48;;;;;;;;;;;;;;;20.48;66.52;100564.19;5014743;28;994;-66
2021/07/28 02:57:13;;;;;;;;;;;;;;;20.48;66.68;100561.47;5014777;28;907;-64
2021/07/28 02:59:38;;;;;;;;;;;;;;;20.48;65.93;100561.47;5014357;28;1705;-64
2021/07/28 03:02:03;;;;;;;;;;;;;;;20.48;66.25;100571.44;5013177;28;1973;-65
2021/07/28 03:04:28;;;;;;;;;;;;;;;20.49;66.47;100573.16;5017252;28;1049;-65
2021/07/28 03:06:53;;;;;;;;;;;;;;;20.46;66.65;100568.91;5018184;28;898;-64
2021/07/28 03:09:18;;;;;;;;;;;;;;;20.43;66.08;100567.38;5016513;28;1620;-64
2021/07/28 03:11:44;;;;;;;;;;;;;;;20.44;66.53;100569.09;5018287;28;906;-64
2021/07/28 03:14:09;;;;;;;;;;;;;;;20.42;67.16;100563.00;5018127;28;1057;-64
2021/07/28 03:16:34;;;;;;;;;;;;;;;20.40;66.89;100561.50;5018223;28;1053;-64
2021/07/28 03:18:59;;;;;;;;;;;;;;;20.38;66.56;100558.94;5018041;28;879;-64
2021/07/28 03:21:24;;;;;;;;;;;;;;;20.36;66.24;100570.94;5017637;28;1894;-64
2021/07/28 03:23:49;;;;;;;;;;;;;;;20.36;66.68;100574.50;5017798;28;941;-65
2021/07/28 03:26:14;;;;;;;;;;;;;;;20.38;66.40;100569.78;5017688;28;1014;-67
2021/07/28 03:28:39;;;;;;;;;;;;;;;20.38;66.93;100567.06;5017710;28;1765;-67
2021/07/28 03:31:04;;;;;;;;;;;;;;;20.31;66.59;100563.31;5018032;28;931;-67
2021/07/28 03:33:29;;;;;;;;;;;;;;;20.33;66.65;100564.00;5017756;28;843;-67
2021/07/28 03:35:54;;;;;;;;;;;;;;;20.32;67.58;100562.28;5017679;28;831;-67
2021/07/28 03:38:20;;;;;;;;;;;;;;;20.31;66.89;100560.59;5017668;28;891;-66
2021/07/28 03:40:45;;;;;;;;;;;;;;;20.34;66.98;100559.44;5017393;28;828;-67
2021/07/28 03:43:10;;;;;;;;;;;;;;;20.29;66.53;100557.22;5017796;28;1898;-67
2021/07/28 03:45:35;;;;;;;;;;;;;;;20.32;67.17;100556.03;5017185;28;2471;-67
2021/07/28 03:48:00;;;;;;;;;;;;;;;20.31;66.76;100563.31;5017510;28;1709;-67
2021/07/28 03:50:25;;;;;;;;;;;;;;;20.32;66.81;100567.72;5017637;28;811;-67
2021/07/28 03:52:50;;;;;;;;;;;;;;;20.31;66.89;100555.19;5017407;28;827;-67
2021/07/28 03:55:15;;;;;;;;;;;;;;;20.29;67.33;100553.66;5016200;28;1507;-67
2021/07/28 03:57:40;;;;;;;;;;;;;;;20.30;66.87;100555.34;5017085;28;1009;-67
2021/07/28 04:00:05;;;;;;;;;;;;;;;20.29;67.39;100557.22;5017252;28;1596;-67
2021/07/28 04:02:30;;;;;;;;;;;;;;;20.28;67.68;100560.94;5017134;28;1914;-67
2021/07/28 04:04:55;;;;;;;;;;;;;;;20.27;67.61;100559.25;5017242;28;1018;-67
2021/07/28 04:07:21;;;;;;;;;;;;;;;20.28;67.51;100560.09;5017282;28;926;-67
2021/07/28 04:09:46;;;;;;;;;;;;;;;20.25;66.97;100558.56;5016775;28;1662;-67
2021/07/28 04:12:11;;;;;;;;;;;;;;;20.26;67.58;100560.25;5017418;28;804;-67
2021/07/28 04:14:36;;;;;;;;;;;;;;;20.27;67.50;100545.72;5015294;28;1669;-67
2021/07/28 04:17:01;;;;;;;;;;;;;;;20.30;67.81;100547.25;5017370;28;800;-67
2021/07/28 04:19:26;;;;;;;;;;;;;;;20.32;67.07;100553.31;5016677;28;1514;-67
2021/07/28 04:21:51;;;;;;;;;;;;;;;20.28;67.88;100552.81;5016634;28;1898;-67
2021/07/28 04:24:16;;;;;;;;;;;;;;;20.26;67.99;100546.72;5016764;28;764;-67
2021/07/28 04:26:41;;;;;;;;;;;;;;;20.26;67.89;100545.88;5016620;28;1037;-67
2021/07/28 04:29:06;;;;;;;;;;;;;;;20.24;67.47;100543.38;5016799;28;918;-67
2021/07/28 04:31:32;;;;;;;;;;;;;;;20.22;67.86;100545.41;5015136;28;2738;-67
2021/07/28 04:33:57;;;;;;;;;;;;;;;20.22;68.07;100539.97;5048448;28;1073;-67
2021/07/28 04:36:22;;;;;;;;;;;;;;;20.24;67.59;100543.38;5016684;28;903;-67
2021/07/28 04:38:47;;;;;;;;;;;;;;;20.27;68.17;100545.72;5016341;28;1634;-66
2021/07/28 04:41:12;;;;;;;;;;;;;;;20.31;67.68;100548.94;5015860;28;1968;-67
2021/07/28 04:43:37;;;;;;;;;;;;;;;20.27;68.02;100547.56;5016612;28;1010;-67
2021/07/28 04:46:02;;;;;;;;;;;;;;;20.29;67.63;100550.97;5016563;28;914;-67
2021/07/28 04:48:27;;;;;;;;;;;;;;;20.28;67.41;100552.81;5016337;28;811;-67
2021/07/28 04:50:52;;;;;;;;;;;;;;;20.24;67.46;100548.78;5014570;28;2685;-66
2021/07/28 04:53:17;;;;;;;;;;;;;;;20.28;68.16;100550.13;5016362;28;1006;-68
2021/07/28 04:55:42;;;;;;;;;;;;;;;20.33;67.43;100547.75;5015853;28;1791;-74
2021/07/28 04:58:07;;;;;;;;;;;;;;;20.38;67.46;100542.72;5014096;28;1511;-69
2021/07/28 05:00:33;;;;;;;;;;;;;;;20.41;67.71;100539.69;5014971;28;1389;-69
2021/07/28 05:02:58;;;;;;;;;;;;;;;20.41;67.45;100546.94;5015430;28;1975;-68
2021/07/28 05:05:23;;;;;;;;;;;;;;;20.45;67.43;100551.81;5014773;28;1897;-68
2021/07/28 05:07:48;;;;;;;;;;;;;;;20.53;67.22;100550.13;5015035;28;1363;-67
2021/07/28 05:10:13;;;;;;;;;;;;;;;20.48;69.72;100547.09;5015323;28;1415;-69
2021/07/28 05:12:38;;;;;;;;;;;;;;;20.44;69.45;100546.59;5014926;28;1272;-65
2021/07/28 05:15:03;;;;;;;;;;;;;;;20.50;68.99;100547.78;5015169;28;1333;-69
2021/07/28 05:17:28;;;;;;;;;;;;;;;20.54;69.66;100547.25;5015261;28;1441;-71
2021/07/28 05:19:53;;;;;;;;;;;;;;;20.53;68.87;100545.56;5014997;28;1410;-70
2021/07/28 05:22:18;;;;;;;;;;;;;;;20.53;69.32;100544.72;5015220;28;1906;-71
2021/07/28 05:24:43;;;;;;;;;;;;;;;20.54;68.12;100543.72;5046988;28;1315;-71
2021/07/28 05:27:09;;;;;;;;;;;;;;;20.56;68.18;100539.81;5014091;28;1236;-71
2021/07/28 05:29:34;;;;;;;;;;;;;;;20.54;68.75;100541.84;5014644;28;1414;-71
2021/07/28 05:31:59;;;;;;;;;;;;;;;20.56;68.79;100539.81;5046635;28;1608;-72
2021/07/28 05:34:24;;;;;;;;;;;;;;;20.54;68.61;100549.97;5015440;28;1743;-71
2021/07/28 05:36:49;;;;;;;;;;;;;;;20.50;69.13;100543.19;5015328;28;1654;-71
2021/07/28 05:39:14;;;;;;;;;;;;;;;20.50;68.96;100545.91;5014921;28;1651;-71
2021/07/28 05:41:39;;;;;;;;;;;;;;;20.39;69.16;100541.69;5015155;28;1957;-70
2021/07/28 05:44:07;;;;;;;;;;;;;;;20.30;69.35;100539.97;5014609;28;1668;-70
2021/07/28 05:46:32;;;;;;;;;;;;;;;20.39;68.71;100536.28;5015308;28;1755;-70
2021/07/28 05:48:57;;;;;;;;;;;;;;;20.46;68.22;100539.13;5014832;28;1648;-71
2021/07/28 05:51:22;;;;;;;;;;;;;;;20.41;68.65;100536.13;5014513;28;1931;-71
2021/07/28 05:53:47;;;;;;;;;;;;;;;20.39;69.27;100539.00;5014828;28;1436;-71
2021/07/28 05:56:12;;;;;;;;;;;;;;;20.43;69.00;100547.59;5015073;28;882;-71
2021/07/28 05:58:38;;;;;;;;;;;;;;;20.49;68.04;100540.66;5015032;28;1052;-70
2021/07/28 06:01:03;;;;;;;;;;;;;;;20.50;68.26;100537.78;5016082;28;1910;-69
2021/07/28 06:03:28;;;;;;;;;;;;;;;20.32;68.19;100542.50;5015658;28;918;-68
2021/07/28 06:05:53;;;;;;;;;;;;;;;20.39;68.96;100552.53;5013850;28;1222;-69
2021/07/28 06:08:19;;;;;;;;;;;;;;;20.43;68.38;100542.19;5015057;28;1744;-69
2021/07/28 06:10:44;;;;;;;;;;;;;;;20.40;68.80;100539.84;5014921;28;1706;-70
2021/07/28 06:13:09;;;;;;;;;;;;;;;20.42;69.65;100538.63;5014919;28;1069;-69
2021/07/28 06:15:34;;;;;;;;;;;;;;;20.53;68.88;100542.00;5015386;28;974;-69
2021/07/28 06:17:59;;;;;;;;;;;;;;;20.59;67.72;100535.94;5015058;28;800;-69
2021/07/28 06:20:24;;;;;;;;;;;;;;;20.55;68.36;100542.69;5015239;28;994;-69
2021/07/28 06:22:49;;;;;;;;;;;;;;;20.38;68.40;100540.00;5013314;28;1975;-69
2021/07/28 06:25:14;;;;;;;;;;;;;;;20.43;67.94;100542.19;5014578;28;1681;-69
2021/07/28 06:27:40;;;;;;;;;;;;;;;20.44;68.70;100533.88;5014584;28;1727;-69
2021/07/28 06:30:05;;;;;;;;;;;;;;;20.36;67.88;100547.44;5013541;28;1656;-68
2021/07/28 06:32:30;;;;;;;;;;;;;;;20.37;68.49;100546.44;5005804;28;1479;-69
2021/07/28 06:34:55;;;;;;;;;;;;;;;20.50;67.83;100542.34;5013368;28;1432;-69
2021/07/28 06:37:20;;;;;;;;;;;;;;;20.57;67.98;100548.78;5015646;28;1520;-69
2021/07/28 06:39:45;;;;;;;;;;;;;;;20.62;67.88;100547.22;5020866;28;1540;-70
2021/07/28 06:42:10;;;;;;;;;;;;;;;20.62;67.72;100541.81;5019950;28;1890;-71
2021/07/28 06:44:35;;;;;;;;;;;;;;;20.58;67.69;100550.47;5034444;28;1653;-71
2021/07/28 06:47:00;;;;;;;;;;;;;;;20.62;68.13;100543.69;5025516;28;1317;-71
2021/07/28 06:49:25;;;;;;;;;;;;;;;20.68;68.09;100551.13;5027133;28;1154;-71
2021/07/28 06:51:50;;;;;;;;;;;;;;;20.68;67.18;100549.25;5032408;28;1084;-70
2021/07/28 06:54:16;;;;;;;;;;;;;;;20.74;67.90;100548.59;5021526;28;2460;-70
2021/07/28 06:56:41;;;;;;;;;;;;;;;20.79;67.33;100539.91;5037986;28;822;-70
2021/07/28 06:59:06;;;;;;;;;;;;;;;20.84;67.18;100545.66;5037823;28;1225;-70
2021/07/28 07:01:31;;;;;;;;;;;;;;;20.88;66.77;100535.34;5034946;28;1971;-70
2021/07/28 07:03:56;;;;;;;;;;;;;;;20.88;67.11;100540.75;5018340;28;859;-69
2021/07/28 07:06:21;;;;;;;;;;;;;;;20.94;66.85;100540.06;5018135;28;875;-69
2021/07/28 07:08:46;;;;;;;;;;;;;;;21.04;67.07;100544.25;5018230;28;990;-69
2021/07/28 07:11:11;;;;;;;;;;;;;;;21.00;66.32;100539.34;5017970;28;950;-69
2021/07/28 07:13:37;;;;;;;;;;;;;;;20.99;66.87;100540.38;5018073;28;839;-71
2021/07/28 07:16:02;;;;;;;;;;;;;;;21.01;66.37;100541.88;5018270;28;839;-70
2021/07/28 07:18:27;;;;;;;;;;;;;;;21.09;66.58;100539.16;5018142;28;811;-70
2021/07/28 07:20:52;;;;;;;;;;;;;;;21.13;65.94;100545.09;5017562;28;1721;-71
2021/07/28 07:23:17;;;;;;;;;;;;;;;21.09;66.38;100543.75;5016295;28;1902;-71
2021/07/28 07:25:42;;;;;;;;;;;;;;;21.08;66.65;100536.63;5018055;28;1013;-69
2021/07/28 07:28:07;;;;;;;;;;;;;;;21.01;66.32;100539.19;5017536;28;1006;-70
2021/07/28 07:30:34;;;;;;;;;;;;;;;20.90;66.16;100538.72;5018239;28;914;-71
2021/07/28 07:35:43;;;;;;;;;;;;;;;20.78;66.09;100539.06;5017378;28;1416;-72
2021/07/28 07:38:08;;;;;;;;;;;;;;;20.79;66.56;100540.75;5015755;28;1421;-70
2021/07/28 07:40:34;;;;;;;;;;;;;;;20.71;66.62;100535.38;5017584;28;799;-70
2021/07/28 07:42:59;;;;;;;;;;;;;;;20.65;66.80;100546.03;5016142;28;1964;-70
2021/07/28 07:45:24;;;;;;;;;;;;;;;20.68;66.58;100545.72;5017575;28;854;-70
2021/07/28 07:47:50;;;;;;;;;;;;;;;20.68;66.21;100546.56;5017555;28;1006;-71
2021/07/28 07:50:15;;;;;;;;;;;;;;;20.69;66.52;100544.69;5016557;28;1722;-71
2021/07/28 07:52:40;;;;;;;;;;;;;;;20.77;66.39;100537.41;5017826;28;791;-70
2021/07/28 07:55:05;;;;;;;;;;;;;;;20.84;66.64;100534.84;5016689;28;2451;-71
2021/07/28 07:57:30;;;;;;;;;;;;;;;20.82;66.79;100536.88;5016892;28;1544;-70
2021/07/28 07:59:55;;;;;;;;;;;;;;;20.85;66.25;100536.53;5017195;28;1216;-69
2021/07/28 08:02:20;;;;;;;;;;;;;;;20.78;66.43;100535.56;5017439;28;1969;-69
2021/07/28 08:04:46;;;;;;;;;;;;;;;20.78;65.67;100540.97;5017225;28;907;-70
2021/07/28 08:07:11;;;;;;;;;;;;;;;20.80;65.81;100536.19;5017224;28;1463;-70
2021/07/28 08:09:36;;;;;;;;;;;;;;;20.80;65.93;100542.47;5032648;28;1344;-70
2021/07/28 08:12:01;;;;;;;;;;;;;;;20.85;66.13;100539.22;5016293;28;1321;-72
2021/07/28 08:14:26;;;;;;;;;;;;;;;20.85;66.21;100541.09;5016629;28;1440;-71
2021/07/28 08:16:51;;;;;;;;;;;;;;;20.83;65.94;100543.97;5016885;28;1601;-70
2021/07/28 08:19:16;;;;;;;;;;;;;;;20.81;65.67;100543.31;5016778;28;1602;-71
2021/07/28 08:21:41;;;;;;;;;;;;;;;20.81;66.28;100543.31;5017600;28;1890;-71
2021/07/28 08:24:06;;;;;;;;;;;;;;;20.69;66.02;100547.41;5015964;28;1554;-70
2021/07/28 08:26:31;;;;;;;;;;;;;;;20.68;65.74;100551.13;5015126;28;1625;-70
2021/07/28 08:28:56;;;;;;;;;;;;;;;20.69;66.03;100550.13;5016575;28;923;-70
2021/07/28 08:31:21;;;;;;;;;;;;;;;20.60;66.03;100551.97;5015524;28;2672;-71
2021/07/28 08:33:46;;;;;;;;;;;;;;;20.58;65.79;100547.78;5016758;28;950;-70
2021/07/28 08:36:12;;;;;;;;;;;;;;;20.62;65.41;100546.38;5016333;28;803;-71
2021/07/28 08:38:37;;;;;;;;;;;;;;;20.62;65.37;100546.38;5016456;28;1001;-70
2021/07/28 08:41:03;;;;;;;;;;;;;;;20.59;66.15;100547.59;5016293;28;1952;-71
2021/07/28 08:43:28;;;;;;;;;;;;;;;20.55;65.99;100545.41;5016621;28;1800;-72
2021/07/28 08:45:53;;;;;;;;;;;;;;;20.58;65.25;100545.06;5016302;28;1679;-71
2021/07/28 08:48:18;;;;;;;;;;;;;;;20.55;65.61;100550.81;5016424;28;1077;-69
2021/07/28 08:50:44;;;;;;;;;;;;;;;20.59;65.38;100546.75;5016655;28;965;-70
2021/07/28 08:53:09;;;;;;;;;;;;;;;20.59;65.17;100547.59;5014998;28;1426;-70
2021/07/28 08:55:34;;;;;;;;;;;;;;;20.56;64.79;100544.38;5016107;28;1001;-71
2021/07/28 08:57:59;;;;;;;;;;;;;;;20.57;65.24;100546.94;5016056;28;796;-70
2021/07/28 09:00:24;;;;;;;;;;;;;;;20.68;65.42;100540.28;5013644;28;2587;-71
2021/07/28 09:02:49;;;;;;;;;;;;;;;20.72;65.25;100537.06;5015562;28;1914;-71
2021/07/28 09:05:14;;;;;;;;;;;;;;;20.74;65.33;100536.91;5014619;28;1639;-71
2021/07/28 09:07:39;;;;;;;;;;;;;;;20.70;65.23;100544.53;5016085;28;997;-69
2021/07/28 09:10:04;;;;;;;;;;;;;;;20.58;65.51;100540.50;5015665;28;1722;-71
2021/07/28 09:12:31;;;;;;;;;;;;;;;20.60;65.29;100543.03;5015521;28;1256;-70
2021/07/28 09:14:57;;;;;;;;;;;;;;;20.62;65.15;100554.50;5015595;28;1343;-70
2021/07/28 09:17:26;;;;;;;;;;;;;;;20.61;65.43;100552.81;5015762;28;1378;-69
2021/07/28 09:19:51;;;;;;;;;;;;;;;20.69;65.50;100550.97;5030327;28;1417;-70
2021/07/28 09:22:18;;;;;;;;;;;;;;;20.64;65.45;100547.06;5015288;28;1961;-70
2021/07/28 09:24:44;;;;;;;;;;;;;;;20.53;65.37;100552.84;5015556;28;775;-71
2021/07/28 09:27:09;;;;;;;;;;;;;;;20.45;65.68;100549.13;5015285;28;1268;-70
2021/07/28 09:29:39;;;;;;;;;;;;;;;20.46;65.16;100552.66;5015079;28;1332;-73
2021/07/28 09:32:04;;;;;;;;;;;;;;;20.41;64.78;100550.50;5016190;28;779;-74
2021/07/28 09:34:29;;;;;;;;;;;;;;;20.44;65.09;100555.53;5015648;28;1798;-70
2021/07/28 09:36:54;;;;;;;;;;;;;;;20.46;65.68;100549.97;5015404;28;1765;-69
2021/07/28 09:39:19;;;;;;;;;;;;;;;20.48;65.57;100556.06;5015186;28;1692;-71
2021/07/28 09:41:44;;;;;;;;;;;;;;;20.52;65.57;100553.84;5015450;28;1963;-71
2021/07/28 09:44:10;;;;;;;;;;;;;;;20.54;65.02;100549.13;5014856;28;1344;-70
2021/07/28 09:46:35;;;;;;;;;;;;;;;20.61;65.24;100555.53;5014923;28;1418;-71
2021/07/28 09:49:00;;;;;;;;;;;;;;;20.61;64.72;100547.41;5015238;28;1320;-70
2021/07/28 09:51:25;;;;;;;;;;;;;;;20.62;65.11;100546.38;5030106;28;1256;-70
2021/07/28 09:53:50;;;;;;;;;;;;;;;20.68;64.83;100537.59;5015794;28;1601;-71
2021/07/28 09:56:15;;;;;;;;;;;;;;;20.74;64.59;100542.31;5015235;28;1909;-70
2021/07/28 09:58:41;;;;;;;;;;;;;;;20.76;64.85;100537.59;5015582;28;915;-69
2021/07/28 10:01:06;;;;;;;;;;;;;;;20.63;64.61;100545.38;5015588;28;1985;-70
2021/07/28 10:03:31;;;;;;;;;;;;;;;20.60;65.05;100543.03;5014875;28;2498;-69
2021/07/28 10:05:56;;;;;;;;;;;;;;;20.62;65.76;100551.81;5015206;28;910;-69
2021/07/28 10:08:21;;;;;;;;;;;;;;;20.62;66.11;100540.97;5015654;28;922;-69
2021/07/28 10:10:46;;;;;;;;;;;;;;;20.62;65.61;100546.38;5015364;28;831;-69
2021/07/28 10:13:11;;;;;;;;;;;;;;;20.67;64.78;100542.16;5014581;28;1990;-69
2021/07/28 10:15:37;;;;;;;;;;;;;;;20.74;65.18;100539.63;5015089;28;863;-69
2021/07/28 10:18:03;;;;;;;;;;;;;;;20.74;64.44;100536.91;5015213;28;807;-69
2021/07/28 10:20:28;;;;;;;;;;;;;;;20.70;63.86;100528.28;5014676;28;839;-69
2021/07/28 10:22:53;;;;;;;;;;;;;;;20.41;64.59;100539.69;5015075;28;1907;-69
2021/07/28 10:25:18;;;;;;;;;;;;;;;20.30;64.80;100534.56;5015351;28;1638;-72
2021/07/28 10:27:43;;;;;;;;;;;;;;;20.57;64.81;100541.50;5015314;28;1054;-69
2021/07/28 10:30:08;;;;;;;;;;;;;;;20.53;63.88;100531.19;5014827;28;1331;-71
2021/07/28 10:32:33;;;;;;;;;;;;;;;20.47;64.22;100534.56;5014814;28;1810;-71
2021/07/28 10:34:59;;;;;;;;;;;;;;;20.54;64.29;100549.13;5014802;28;1796;-73
2021/07/28 10:37:24;;;;;;;;;;;;;;;20.43;64.21;100545.72;5014724;28;918;-73
2021/07/28 10:39:51;;;;;;;;;;;;;;;20.32;64.21;100535.22;5014504;28;808;-72
2021/07/28 10:42:16;;;;;;;;;;;;;;;20.40;64.04;100540.69;5012241;28;1957;-71
2021/07/28 10:44:41;;;;;;;;;;;;;;;20.57;63.96;100544.22;5029662;28;1336;-74
2021/07/28 10:47:06;;;;;;;;;;;;;;;20.67;64.09;100560.25;5046119;28;1330;-72
2021/07/28 10:49:31;;;;;;;;;;;;;;;20.54;63.65;100546.41;5014088;28;1442;-72
2021/07/28 10:51:56;;;;;;;;;;;;;;;20.53;63.84;100547.44;5014006;28;1435;-74
2021/07/28 10:54:22;;;;;;;;;;;;;;;20.64;63.48;100539.78;5014369;28;1267;-75
2021/07/28 10:56:47;;;;;;;;;;;;;;;20.54;63.58;100539.13;5014165;28;1422;-75
2021/07/28 10:59:12;;;;;;;;;;;;;;;20.50;64.03;100543.19;5014492;28;1484;-76
2021/07/28 11:01:37;;;;;;;;;;;;;;;20.45;64.08;100530.16;5015015;28;1906;-75
2021/07/28 11:04:02;;;;;;;;;;;;;;;20.37;63.60;100546.44;5014660;28;878;-75
2021/07/28 11:06:27;;;;;;;;;;;;;;;20.44;63.34;100542.00;5046458;28;2405;-76
2021/07/28 11:08:52;;;;;;;;;;;;;;;20.49;63.58;100544.22;5013614;28;1728;-75
2021/07/28 11:11:17;;;;;;;;;;;;;;;20.62;64.40;100549.94;5013848;28;1319;-75
2021/07/28 11:13:42;;;;;;;;;;;;;;;20.67;64.16;100547.56;5013188;28;1671;-75
2021/07/28 11:16:08;;;;;;;;;;;;;;;20.57;63.67;100544.22;5013928;28;1414;-75
2021/07/28 11:18:33;;;;;;;;;;;;;;;20.59;63.77;100536.78;5029762;28;1304;-75
2021/07/28 11:20:58;;;;;;;;;;;;;;;20.61;63.10;100544.69;5014136;28;1408;-75
2021/07/28 11:23:29;;;;;;;;;;;;;;;20.63;63.44;100542.66;5013359;28;1955;-75
2021/07/28 11:25:54;;;;;;;;;;;;;;;20.65;62.21;100536.06;5017732;28;1735;-75
2021/07/28 11:28:20;;;;;;;;;;;;;;;20.52;62.63;100540.31;5017125;28;978;-75
2021/07/28 11:30:47;;;;;;;;;;;;;;;20.53;62.64;100537.44;5017972;28;2070;-77
2021/07/28 11:33:12;;;;;;;;;;;;;;;20.46;63.73;100533.72;5017481;28;1510;-76
2021/07/28 11:35:37;;;;;;;;;;;;;;;20.51;63.11;100555.72;5015550;28;1624;-75
2021/07/28 11:38:03;;;;;;;;;;;;;;;20.44;63.45;100555.53;5017252;28;1379;-76
2021/07/28 11:40:28;;;;;;;;;;;;;;;20.41;63.52;100546.94;5017505;28;923;-76
2021/07/28 11:42:53;;;;;;;;;;;;;;;20.43;63.04;100540.31;5017487;28;1953;-76
2021/07/28 11:45:18;;;;;;;;;;;;;;;20.45;63.13;100549.13;5017304;28;1920;-78
2021/07/28 11:47:43;;;;;;;;;;;;;;;20.57;62.36;100548.78;5016270;28;1572;-77
2021/07/28 11:50:08;;;;;;;;;;;;;;;20.63;62.54;100548.06;5017641;28;996;-75
2021/07/28 11:52:33;;;;;;;;;;;;;;;20.60;62.96;100543.03;5018186;28;895;-76
2021/07/28 11:54:58;;;;;;;;;;;;;;;20.60;62.41;100543.84;5016515;28;1005;-77
2021/07/28 11:57:23;;;;;;;;;;;;;;;20.43;62.88;100543.03;5017583;28;1579;-77
2021/07/28 11:59:48;;;;;;;;;;;;;;;20.54;62.90;100539.13;5017732;28;1475;-79
2021/07/28 12:02:13;;;;;;;;;;;;;;;20.49;62.42;100549.63;5017432;28;1975;-80
2021/07/28 12:04:39;;;;;;;;;;;;;;;20.47;62.12;100548.94;5017173;28;1710;-78
2021/07/28 12:07:04;;;;;;;;;;;;;;;20.53;62.74;100547.44;5017272;28;796;-77
2021/07/28 12:09:29;;;;;;;;;;;;;;;20.54;62.41;100551.81;5016977;28;1145;-78
2021/07/28 12:11:54;;;;;;;;;;;;;;;20.58;62.08;100550.47;5016965;28;819;-78
2021/07/28 12:14:19;;;;;;;;;;;;;;;20.43;62.84;100547.59;5017438;28;895;-77
2021/07/28 12:16:44;;;;;;;;;;;;;;;20.41;62.94;100549.66;5017337;28;890;-77
2021/07/28 12:19:10;;;;;;;;;;;;;;;20.51;62.91;100550.31;5016068;28;1240;-78
2021/07/28 12:21:35;;;;;;;;;;;;;;;20.49;62.84;100537.94;5017017;28;2416;-76
2021/07/28 12:24:03;;;;;;;;;;;;;;;20.35;63.04;100551.13;5016786;28;816;-78
2021/07/28 12:26:28;;;;;;;;;;;;;;;20.39;62.94;100565.22;5016292;28;1660;-76
2021/07/28 12:28:53;;;;;;;;;;;;;;;20.45;62.47;100554.53;5016516;28;1351;-76
2021/07/28 12:31:18;;;;;;;;;;;;;;;20.58;62.52;100555.91;5016860;28;862;-79
2021/07/28 12:33:43;;;;;;;;;;;;;;;20.56;62.56;100556.06;5017076;28;1017;-77
2021/07/28 12:36:08;;;;;;;;;;;;;;;20.43;61.95;100558.41;5016305;28;1256;-75
2021/07/28 12:38:35;;;;;;;;;;;;;;;20.49;62.17;100562.31;5015465;28;1377;-77
2021/07/28 12:41:00;;;;;;;;;;;;;;;20.51;62.61;100573.81;5016159;28;1331;-79
2021/07/28 12:43:26;;;;;;;;;;;;;;;20.43;63.05;100571.94;5048489;28;1893;-78
2021/07/28 12:45:51;;;;;;;;;;;;;;;20.49;63.73;100583.97;5016703;28;871;-76